Time;durP1;ratioP1;P1;durP2;ratioP2;P2;SDS_P1;SDS_P2;PMS_P1;PMS_P2;Temp;Humidity;BMP_temperature;BMP_pressure;BME280_temperature;BME280_humidity;BME280_pressure;Samples;Min_cycle;Max_cycle;Signal;HPM_P1;HPM_P2
2022/12/10 00:01:52;;;;;;;43.33;15.90;;;;;;;;;;5007433;28;20427;-57
2022/12/10 00:04:18;;;;;;;38.78;15.05;;;;;;;;;;5011117;28;20063;-57
2022/12/10 00:06:43;;;;;;;42.78;16.08;;;;;;;;;;5010234;28;20104;-57
2022/12/10 00:09:13;;;;;;;40.38;14.77;;;;;;;;;;5006732;28;20030;-56
2022/12/10 00:11:38;;;;;;;42.65;15.63;;;;;;;;;;5011345;28;20050;-57
2022/12/10 00:14:04;;;;;;;42.22;15.07;;;;;;;;;;5009374;28;20159;-58
2022/12/10 00:16:30;;;;;;;42.43;14.93;;;;;;;;;;5009299;28;20759;-58
2022/12/10 00:18:56;;;;;;;42.45;13.85;;;;;;;;;;5008399;28;20025;-58
2022/12/10 00:21:22;;;;;;;40.08;15.10;;;;;;;;;;5007295;28;20056;-57
2022/12/10 00:23:47;;;;;;;40.97;15.73;;;;;;;;;;5009265;28;20021;-57
2022/12/10 00:26:17;;;;;;;39.45;15.95;;;;;;;;;;5007403;28;20022;-57
2022/12/10 00:28:43;;;;;;;43.97;16.10;;;;;;;;;;5008145;28;20443;-57
2022/12/10 00:31:10;;;;;;;38.72;14.57;;;;;;;;;;5010067;28;20018;-58
2022/12/10 00:33:36;;;;;;;44.78;16.20;;;;;;;;;;5009920;28;20079;-57
2022/12/10 00:36:05;;;;;;;43.92;16.00;;;;;;;;;;5008717;28;20030;-58
2022/12/10 00:38:30;;;;;;;41.15;15.50;;;;;;;;;;5009571;28;20040;-58
2022/12/10 00:40:55;;;;;;;43.40;16.17;;;;;;;;;;5006061;28;20030;-57
2022/12/10 00:43:20;;;;;;;35.33;14.20;;;;;;;;;;5008886;28;20022;-58
2022/12/10 00:45:45;;;;;;;40.70;15.27;;;;;;;;;;5008171;28;20021;-58
2022/12/10 00:48:10;;;;;;;40.27;15.50;;;;;;;;;;5008034;28;20053;-57
2022/12/10 00:50:36;;;;;;;43.13;14.90;;;;;;;;;;5006936;28;20608;-58
2022/12/10 00:53:01;;;;;;;43.37;15.57;;;;;;;;;;5008995;28;20054;-58
2022/12/10 00:55:26;;;;;;;43.27;15.07;;;;;;;;;;5009638;28;20467;-58
2022/12/10 00:57:51;;;;;;;43.67;15.32;;;;;;;;;;5007585;28;20026;-57
2022/12/10 01:00:16;;;;;;;41.80;16.33;;;;;;;;;;5006362;28;20034;-57
2022/12/10 01:02:42;;;;;;;42.10;14.70;;;;;;;;;;5007789;28;20022;-59
2022/12/10 01:05:07;;;;;;;43.53;15.97;;;;;;;;;;5007079;28;20079;-58
2022/12/10 01:07:32;;;;;;;44.92;14.90;;;;;;;;;;5007087;28;20029;-58
2022/12/10 01:09:57;;;;;;;39.87;14.67;;;;;;;;;;5008295;28;20041;-57
2022/12/10 01:12:23;;;;;;;44.57;14.67;;;;;;;;;;5005853;28;20145;-58
2022/12/10 01:14:48;;;;;;;36.22;13.48;;;;;;;;;;5006964;28;20037;-58
2022/12/10 01:17:13;;;;;;;38.47;14.27;;;;;;;;;;5003456;28;20075;-58
2022/12/10 01:19:38;;;;;;;41.13;14.20;;;;;;;;;;5007486;28;20111;-58
2022/12/10 01:22:04;;;;;;;39.83;14.30;;;;;;;;;;5007266;28;20505;-58
2022/12/10 01:24:29;;;;;;;38.28;13.65;;;;;;;;;;5009167;28;20157;-57
2022/12/10 01:26:55;;;;;;;39.20;14.88;;;;;;;;;;5007569;28;20018;-58
2022/12/10 01:29:20;;;;;;;38.33;14.02;;;;;;;;;;5007228;28;20026;-57
2022/12/10 01:31:49;;;;;;;43.17;13.85;;;;;;;;;;5007158;28;20022;-58
2022/12/10 01:34:14;;;;;;;35.80;14.10;;;;;;;;;;5006178;28;20033;-59
2022/12/10 01:36:41;;;;;;;41.57;14.20;;;;;;;;;;5008860;28;20038;-56
2022/12/10 01:39:07;;;;;;;39.22;14.38;;;;;;;;;;5008505;28;20026;-57
2022/12/10 01:41:33;;;;;;;40.40;14.65;;;;;;;;;;5006762;28;20022;-57
2022/12/10 01:44:24;;;;;;;38.13;12.98;;;;;;;;;;5005643;28;20448;-56
2022/12/10 01:46:51;;;;;;;37.78;14.07;;;;;;;;;;4996946;28;20022;-57
2022/12/10 01:49:21;;;;;;;38.38;15.15;;;;;;;;;;5007452;28;20109;-58
2022/12/10 01:51:47;;;;;;;42.80;15.40;;;;;;;;;;5005132;28;20109;-57
2022/12/10 01:54:18;;;;;;;38.97;14.55;;;;;;;;;;5006504;28;20038;-57
2022/12/10 01:56:46;;;;;;;43.80;14.43;;;;;;;;;;5008585;28;20092;-57
2022/12/10 01:59:15;;;;;;;40.15;14.93;;;;;;;;;;5008464;28;20144;-58
2022/12/10 02:01:51;;;;;;;37.67;14.10;;;;;;;;;;5006114;28;20022;-58
2022/12/10 02:04:24;;;;;;;38.88;13.90;;;;;;;;;;5005786;28;20514;-58
2022/12/10 02:06:55;;;;;;;40.10;13.75;;;;;;;;;;5008104;28;20477;-59
2022/12/10 02:09:32;;;;;;;37.92;13.60;;;;;;;;;;5008700;28;20076;-57
2022/12/10 02:11:57;;;;;;;34.35;11.65;;;;;;;;;;5010961;28;20062;-57
2022/12/10 02:14:23;;;;;;;40.22;13.82;;;;;;;;;;5011220;28;20053;-56
2022/12/10 02:16:59;;;;;;;38.23;14.37;;;;;;;;;;5011593;28;20053;-57
2022/12/10 02:19:30;;;;;;;36.80;13.00;;;;;;;;;;5010678;28;20025;-57
2022/12/10 02:21:56;;;;;;;37.08;13.20;;;;;;;;;;5010092;28;20018;-57
2022/12/10 02:24:25;;;;;;;40.35;14.55;;;;;;;;;;5010311;28;20037;-57
2022/12/10 02:27:00;;;;;;;38.00;14.98;;;;;;;;;;5012338;28;20061;-57
2022/12/10 02:29:26;;;;;;;41.97;15.32;;;;;;;;;;5012294;28;20033;-57
2022/12/10 02:31:53;;;;;;;36.95;13.23;;;;;;;;;;5012188;28;20029;-57
2022/12/10 02:34:18;;;;;;;;;;;;;;;;;;5010627;28;20020;-57
2022/12/10 02:36:46;;;;;;;37.42;13.60;;;;;;;;;;5009432;28;19917;-58
2022/12/10 02:39:12;;;;;;;36.47;12.57;;;;;;;;;;5012030;28;20048;-58
2022/12/10 02:41:40;;;;;;;36.55;12.90;;;;;;;;;;5012045;28;20080;-57
2022/12/10 02:44:08;;;;;;;35.88;13.63;;;;;;;;;;5011046;28;20024;-57
2022/12/10 02:46:34;;;;;;;35.35;12.55;;;;;;;;;;5009600;28;20018;-58
2022/12/10 02:49:01;;;;;;;33.28;12.30;;;;;;;;;;5010940;28;20435;-58
2022/12/10 02:51:26;;;;;;;36.58;13.27;;;;;;;;;;5010397;28;20044;-58
2022/12/10 02:53:59;;;;;;;34.47;13.00;;;;;;;;;;5011559;28;20014;-57
2022/12/10 02:56:29;;;;;;;34.65;12.13;;;;;;;;;;5008836;28;20587;-57
2022/12/10 02:59:15;;;;;;;34.08;13.52;;;;;;;;;;5011599;28;20040;-57
2022/12/10 03:01:44;;;;;;;35.15;12.68;;;;;;;;;;5011555;28;20022;-57
2022/12/10 03:04:12;;;;;;;33.83;12.55;;;;;;;;;;5010863;28;20466;-57
2022/12/10 03:07:00;;;;;;;34.67;12.50;;;;;;;;;;5007568;28;20366;-58
2022/12/10 03:09:32;;;;;;;31.55;11.88;;;;;;;;;;5008794;28;20100;-57
2022/12/10 03:11:59;;;;;;;29.42;12.05;;;;;;;;;;5010192;28;20026;-57
2022/12/10 03:14:29;;;;;;;34.42;12.90;;;;;;;;;;5008995;28;20460;-58
2022/12/10 03:16:56;;;;;;;36.90;13.40;;;;;;;;;;5009711;28;20100;-58
2022/12/10 03:19:23;;;;;;;32.05;13.13;;;;;;;;;;5011274;28;20057;-59
2022/12/10 03:21:48;;;;;;;;;;;;;;;;;;5010898;28;20018;-58
2022/12/10 03:24:15;;;;;;;33.70;11.05;;;;;;;;;;5009089;28;19909;-57
2022/12/10 03:26:41;;;;;;;;;;;;;;;;;;5009833;28;20018;-57
2022/12/10 03:29:08;;;;;;;29.55;10.95;;;;;;;;;;5008521;28;20360;-56
2022/12/10 03:31:33;;;;;;;;;;;;;;;;;;5010904;28;20106;-57
2022/12/10 03:33:59;;;;;;;34.35;11.75;;;;;;;;;;5010663;28;19992;-58
2022/12/10 03:36:24;;;;;;;31.27;11.65;;;;;;;;;;5009344;28;20018;-59
2022/12/10 03:38:50;;;;;;;31.95;11.70;;;;;;;;;;5005517;28;20017;-58
2022/12/10 03:41:15;;;;;;;31.00;11.70;;;;;;;;;;5007432;28;20038;-57
2022/12/10 03:43:54;;;;;;;30.87;11.30;;;;;;;;;;5009999;28;20021;-58
2022/12/10 03:46:19;;;;;;;27.88;10.80;;;;;;;;;;5009883;28;20025;-59
2022/12/10 03:48:45;;;;;;;31.30;12.10;;;;;;;;;;5008444;28;20468;-58
2022/12/10 03:51:10;;;;;;;31.85;12.10;;;;;;;;;;5007734;28;20117;-58
2022/12/10 03:53:35;;;;;;;32.13;11.73;;;;;;;;;;5010678;28;20044;-58
2022/12/10 03:56:00;;;;;;;31.13;11.57;;;;;;;;;;5010437;28;20049;-57
2022/12/10 03:58:25;;;;;;;30.80;11.63;;;;;;;;;;5010645;28;20472;-57
2022/12/10 04:00:50;;;;;;;30.47;11.80;;;;;;;;;;5009483;28;20112;-58
2022/12/10 04:03:15;;;;;;;30.20;11.23;;;;;;;;;;5011260;28;20469;-57
2022/12/10 04:05:41;;;;;;;29.97;11.40;;;;;;;;;;5010390;28;20049;-58
2022/12/10 04:08:06;;;;;;;31.23;10.83;;;;;;;;;;5010369;28;20030;-58
2022/12/10 04:10:34;;;;;;;32.93;11.87;;;;;;;;;;5008133;28;20030;-59
2022/12/10 04:18:27;;;;;;;29.45;11.63;;;;;;;;;;5010484;28;20547;-58
2022/12/10 04:27:02;;;;;;;32.83;11.55;;;;;;;;;;5009922;28;20203;-59
2022/12/10 04:29:09;;;;;;;30.17;11.25;;;;;;;;;;5007184;28;20462;-59
2022/12/10 04:31:34;;;;;;;37.70;12.65;;;;;;;;;;5008508;28;20109;-58
2022/12/10 04:33:59;;;;;;;34.53;12.97;;;;;;;;;;5009292;28;20029;-58
2022/12/10 04:36:24;;;;;;;33.13;11.43;;;;;;;;;;5009113;28;20116;-58
2022/12/10 04:38:49;;;;;;;40.20;12.80;;;;;;;;;;5009054;28;20030;-58
2022/12/10 04:41:15;;;;;;;34.90;13.37;;;;;;;;;;5005509;28;20026;-58
2022/12/10 04:43:40;;;;;;;35.72;12.73;;;;;;;;;;5008585;28;20476;-58
2022/12/10 04:46:05;;;;;;;38.05;12.77;;;;;;;;;;5009575;28;20026;-58
2022/12/10 04:48:31;;;;;;;34.03;13.07;;;;;;;;;;5008840;28;20058;-58
2022/12/10 04:50:56;;;;;;;33.83;12.27;;;;;;;;;;5007807;28;20105;-58
2022/12/10 04:53:22;;;;;;;37.10;12.60;;;;;;;;;;5007266;28;20034;-57
2022/12/10 04:55:47;;;;;;;35.08;11.90;;;;;;;;;;5009332;28;20373;-59
2022/12/10 04:58:12;;;;;;;34.17;12.20;;;;;;;;;;5007447;28;20060;-58
2022/12/10 05:00:37;;;;;;;32.40;10.97;;;;;;;;;;5008632;28;20014;-59
2022/12/10 05:03:02;;;;;;;32.83;11.53;;;;;;;;;;5006636;28;20400;-59
2022/12/10 05:05:28;;;;;;;33.13;13.07;;;;;;;;;;5006471;28;20018;-59
2022/12/10 05:07:53;;;;;;;39.33;13.47;;;;;;;;;;5010233;28;20609;-59
2022/12/10 05:10:18;;;;;;;37.20;13.63;;;;;;;;;;5009944;28;20045;-59
2022/12/10 05:12:43;;;;;;;37.50;12.23;;;;;;;;;;5008469;28;20405;-58
2022/12/10 05:15:09;;;;;;;35.23;13.10;;;;;;;;;;5010026;28;20473;-57
2022/12/10 05:17:34;;;;;;;38.25;13.38;;;;;;;;;;5009336;28;20026;-58
2022/12/10 05:19:59;;;;;;;37.80;13.57;;;;;;;;;;5009764;28;20026;-58
2022/12/10 05:25:08;;;;;;;34.25;12.32;;;;;;;;;;5008960;28;20032;-58
2022/12/10 05:27:33;;;;;;;35.27;13.20;;;;;;;;;;5009156;28;20026;-58
2022/12/10 05:29:58;;;;;;;36.03;12.30;;;;;;;;;;5009260;28;20084;-58
2022/12/10 05:32:23;;;;;;;36.45;13.20;;;;;;;;;;5009319;28;20037;-58
2022/12/10 05:34:49;;;;;;;37.00;13.03;;;;;;;;;;5008091;28;20022;-58
2022/12/10 05:37:14;;;;;;;36.43;12.90;;;;;;;;;;5010337;28;20109;-58
2022/12/10 05:39:39;;;;;;;39.70;13.67;;;;;;;;;;5007564;28;20827;-58
2022/12/10 05:42:04;;;;;;;35.17;12.83;;;;;;;;;;5005799;28;20025;-58
2022/12/10 05:44:29;;;;;;;34.90;11.77;;;;;;;;;;5006990;28;20058;-58
2022/12/10 05:46:55;;;;;;;41.47;13.20;;;;;;;;;;5012436;28;20833;-58
2022/12/10 05:49:20;;;;;;;37.93;13.60;;;;;;;;;;5012828;28;20022;-59
2022/12/10 05:51:45;;;;;;;35.67;12.73;;;;;;;;;;5013018;28;20036;-58
2022/12/10 05:54:10;;;;;;;40.17;13.93;;;;;;;;;;5011781;28;20457;-58
2022/12/10 05:56:35;;;;;;;39.47;13.30;;;;;;;;;;5010362;28;20111;-58
2022/12/10 05:59:01;;;;;;;39.47;13.23;;;;;;;;;;5010496;28;20109;-59
2022/12/10 06:01:28;;;;;;;35.15;13.20;;;;;;;;;;5017594;28;20034;-58
2022/12/10 06:03:54;;;;;;;;;;;;;;;;;;5013689;28;20472;-57
2022/12/10 06:06:23;;;;;;;38.15;12.85;;;;;;;;;;5012181;28;20359;-59
2022/12/10 06:08:48;;;;;;;38.15;12.90;;;;;;;;;;5011346;28;20105;-58
2022/12/10 06:11:13;;;;;;;38.72;13.27;;;;;;;;;;5011880;28;20120;-58
2022/12/10 06:13:38;;;;;;;35.13;12.63;;;;;;;;;;5005105;28;20050;-58
2022/12/10 06:16:07;;;;;;;42.60;14.80;;;;;;;;;;5010265;28;20104;-58
2022/12/10 06:18:33;;;;;;;41.53;12.60;;;;;;;;;;5006887;28;20036;-58
2022/12/10 06:20:58;;;;;;;41.77;14.17;;;;;;;;;;5011041;28;20022;-58
2022/12/10 06:23:23;;;;;;;38.77;13.97;;;;;;;;;;5011641;28;20638;-58
2022/12/10 06:25:48;;;;;;;35.33;12.73;;;;;;;;;;5010707;28;20072;-59
2022/12/10 06:28:13;;;;;;;39.53;13.70;;;;;;;;;;5010629;28;20018;-59
2022/12/10 06:30:39;;;;;;;41.03;14.17;;;;;;;;;;5010030;28;20028;-59
2022/12/10 06:33:04;;;;;;;42.93;13.97;;;;;;;;;;5011625;28;20032;-59
2022/12/10 06:35:29;;;;;;;41.63;14.17;;;;;;;;;;5011752;28;20088;-58
2022/12/10 06:37:54;;;;;;;39.77;14.20;;;;;;;;;;5013090;28;20014;-58
2022/12/10 06:40:19;;;;;;;38.73;12.63;;;;;;;;;;5012687;28;20542;-57
2022/12/10 06:42:44;;;;;;;39.60;14.23;;;;;;;;;;5012655;28;20117;-58
2022/12/10 06:45:10;;;;;;;39.63;14.67;;;;;;;;;;5011829;28;20068;-58
2022/12/10 06:47:35;;;;;;;41.08;14.43;;;;;;;;;;5012889;28;20017;-59
2022/12/10 06:50:00;;;;;;;42.23;13.33;;;;;;;;;;5013160;28;20038;-58
2022/12/10 06:52:25;;;;;;;41.00;13.73;;;;;;;;;;5009426;28;20030;-59
2022/12/10 06:54:50;;;;;;;42.00;14.13;;;;;;;;;;5003816;28;20171;-60
2022/12/10 06:57:16;;;;;;;40.13;14.30;;;;;;;;;;5007131;28;20564;-60
2022/12/10 06:59:41;;;;;;;42.87;13.27;;;;;;;;;;5010181;28;21002;-60
2022/12/10 07:02:07;;;;;;;42.43;13.57;;;;;;;;;;5010140;28;20061;-60
2022/12/10 07:04:32;;;;;;;43.63;13.25;;;;;;;;;;5010739;28;20032;-60
2022/12/10 07:06:57;;;;;;;41.43;13.40;;;;;;;;;;5008142;28;20385;-60
2022/12/10 07:09:23;;;;;;;37.40;12.03;;;;;;;;;;5008191;28;20022;-60
2022/12/10 07:11:49;;;;;;;39.00;13.30;;;;;;;;;;5009375;28;20151;-60
2022/12/10 07:14:15;;;;;;;41.57;13.87;;;;;;;;;;5008858;28;20057;-59
2022/12/10 07:16:40;;;;;;;45.17;14.10;;;;;;;;;;5007753;28;20459;-59
2022/12/10 07:19:05;;;;;;;42.38;13.43;;;;;;;;;;5009313;28;20025;-59
2022/12/10 07:21:32;;;;;;;36.83;12.57;;;;;;;;;;5009414;28;20068;-59
2022/12/10 07:23:59;;;;;;;37.28;11.80;;;;;;;;;;5009241;28;20389;-60
2022/12/10 07:26:24;;;;;;;41.70;14.13;;;;;;;;;;5008998;28;20030;-58
2022/12/10 07:28:50;;;;;;;44.25;13.60;;;;;;;;;;5009039;28;20376;-60
2022/12/10 07:31:15;;;;;;;42.07;12.90;;;;;;;;;;5008718;28;20038;-60
2022/12/10 07:33:40;;;;;;;44.80;14.30;;;;;;;;;;5002201;28;20076;-61
2022/12/10 07:36:06;;;;;;;37.72;13.68;;;;;;;;;;5008773;28;20056;-61
2022/12/10 07:38:31;;;;;;;42.50;14.15;;;;;;;;;;5006660;28;20034;-60
2022/12/10 07:40:56;;;;;;;42.87;13.60;;;;;;;;;;5011321;28;20026;-60
2022/12/10 07:43:21;;;;;;;44.67;13.70;;;;;;;;;;5017201;28;20045;-60
2022/12/10 07:45:46;;;;;;;39.27;13.53;;;;;;;;;;5008568;28;20049;-60
2022/12/10 07:48:12;;;;;;;37.83;13.40;;;;;;;;;;5010614;28;20026;-60
2022/12/10 07:50:37;;;;;;;41.25;13.75;;;;;;;;;;5008865;28;20030;-61
2022/12/10 07:53:02;;;;;;;38.53;13.00;;;;;;;;;;5009654;28;20022;-60
2022/12/10 07:55:27;;;;;;;47.77;14.30;;;;;;;;;;5005855;28;20017;-59
2022/12/10 07:57:52;;;;;;;38.93;13.87;;;;;;;;;;5007343;28;20033;-58
2022/12/10 08:00:18;;;;;;;41.30;14.87;;;;;;;;;;5004674;28;20030;-57
2022/12/10 08:02:43;;;;;;;36.97;13.37;;;;;;;;;;5007592;28;20018;-58
2022/12/10 08:05:08;;;;;;;41.67;13.60;;;;;;;;;;5004159;28;20040;-58
2022/12/10 08:07:34;;;;;;;40.13;13.93;;;;;;;;;;5007058;28;20034;-57
2022/12/10 08:09:59;;;;;;;39.00;13.23;;;;;;;;;;5006655;28;20076;-58
2022/12/10 08:12:24;;;;;;;44.17;13.67;;;;;;;;;;5006618;28;20049;-62
2022/12/10 08:14:49;;;;;;;41.87;14.47;;;;;;;;;;5008449;28;20034;-57
2022/12/10 08:17:14;;;;;;;40.03;13.80;;;;;;;;;;5009657;28;20044;-58
2022/12/10 08:19:39;;;;;;;43.77;14.07;;;;;;;;;;5007479;28;20029;-57
2022/12/10 08:22:05;;;;;;;47.03;14.87;;;;;;;;;;4991150;28;20049;-59
2022/12/10 08:24:30;;;;;;;39.83;13.05;;;;;;;;;;4991623;28;20011;-60
2022/12/10 08:26:55;;;;;;;39.97;12.63;;;;;;;;;;4991185;28;20582;-57
2022/12/10 08:29:20;;;;;;;39.53;13.30;;;;;;;;;;4991364;28;20038;-56
2022/12/10 08:31:46;;;;;;;40.53;14.40;;;;;;;;;;4990806;28;20109;-56
2022/12/10 08:34:14;;;;;;;41.20;13.47;;;;;;;;;;4986158;28;20109;-57
2022/12/10 08:36:40;;;;;;;38.70;14.20;;;;;;;;;;4991402;28;20500;-57
2022/12/10 08:39:05;;;;;;;40.55;13.00;;;;;;;;;;4991466;28;20030;-58
2022/12/10 08:41:30;;;;;;;41.43;13.97;;;;;;;;;;4990239;28;20603;-57
2022/12/10 08:43:56;;;;;;;38.73;14.07;;;;;;;;;;4990925;28;20030;-57
2022/12/10 08:46:21;;;;;;;38.95;12.82;;;;;;;;;;4991231;28;20038;-58
2022/12/10 08:48:46;;;;;;;41.17;14.27;;;;;;;;;;4991478;28;20021;-57
2022/12/10 08:51:14;;;;;;;43.67;15.10;;;;;;;;;;4991034;28;20029;-58
2022/12/10 08:53:39;;;;;;;45.30;15.23;;;;;;;;;;4990433;28;20512;-57
2022/12/10 08:56:04;;;;;;;42.57;14.77;;;;;;;;;;4991741;28;20034;-57
2022/12/10 08:58:30;;;;;;;43.97;15.20;;;;;;;;;;4992037;28;20034;-60
2022/12/10 09:00:55;;;;;;;40.40;12.40;;;;;;;;;;4990974;28;20796;-57
2022/12/10 09:03:20;;;;;;;42.23;14.13;;;;;;;;;;4990812;28;20480;-57
2022/12/10 09:05:46;;;;;;;53.40;17.53;;;;;;;;;;4990900;28;20038;-57
2022/12/10 09:08:11;;;;;;;46.88;15.77;;;;;;;;;;4991143;28;20397;-58
2022/12/10 09:10:37;;;;;;;47.77;14.83;;;;;;;;;;4990639;28;20554;-57
2022/12/10 09:13:02;;;;;;;45.30;15.48;;;;;;;;;;4989952;28;20046;-58
2022/12/10 09:15:28;;;;;;;38.35;13.27;;;;;;;;;;4990069;28;20454;-58
2022/12/10 09:17:53;;;;;;;44.87;14.20;;;;;;;;;;4990289;28;20022;-58
2022/12/10 09:20:18;;;;;;;41.63;12.87;;;;;;;;;;5009274;28;20414;-57
2022/12/10 09:22:43;;;;;;;44.50;14.90;;;;;;;;;;5012857;28;20037;-58
2022/12/10 09:25:14;;;;;;;43.17;15.43;;;;;;;;;;5012786;28;20020;-58
2022/12/10 09:27:40;;;;;;;39.42;14.55;;;;;;;;;;5013217;28;20029;-58
2022/12/10 09:30:06;;;;;;;42.77;14.63;;;;;;;;;;5013345;28;20461;-58
2022/12/10 09:32:31;;;;;;;39.30;14.27;;;;;;;;;;5012769;28;20022;-58
2022/12/10 09:34:56;;;;;;;39.37;13.67;;;;;;;;;;5012985;28;20080;-57
2022/12/10 09:37:21;;;;;;;40.80;13.80;;;;;;;;;;5013060;28;20022;-58
2022/12/10 09:39:46;;;;;;;46.27;14.23;;;;;;;;;;5012778;28;20026;-58
2022/12/10 09:42:21;;;;;;;39.63;13.53;;;;;;;;;;5012520;28;20022;-58
2022/12/10 09:45:02;;;;;;;40.55;13.45;;;;;;;;;;5013097;28;20060;-58
2022/12/10 09:47:36;;;;;;;35.30;12.65;;;;;;;;;;5012787;28;20060;-58
2022/12/10 09:50:06;;;;;;;41.22;13.50;;;;;;;;;;5012617;28;20476;-57
2022/12/10 09:52:35;;;;;;;42.45;15.00;;;;;;;;;;5012171;28;20112;-57
2022/12/10 09:55:05;;;;;;;35.25;12.57;;;;;;;;;;5012914;28;20108;-57
2022/12/10 09:57:36;;;;;;;38.38;14.00;;;;;;;;;;5012556;28;20072;-58
2022/12/10 10:00:24;;;;;;;36.28;12.68;;;;;;;;;;5012719;28;20014;-58
2022/12/10 10:02:50;;;;;;;38.55;13.52;;;;;;;;;;4998989;28;20084;-58
2022/12/10 10:05:20;;;;;;;40.63;13.70;;;;;;;;;;5012556;28;20026;-58
2022/12/10 10:07:48;;;;;;;37.13;12.60;;;;;;;;;;5012309;28;20713;-59
2022/12/10 10:10:31;;;;;;;41.15;13.65;;;;;;;;;;5012727;28;20044;-59
2022/12/10 10:13:08;;;;;;;40.95;13.48;;;;;;;;;;4974547;28;1076287;-58
2022/12/10 10:15:35;;;;;;;39.88;12.80;;;;;;;;;;5013779;28;20101;-59
2022/12/10 10:18:05;;;;;;;38.53;13.07;;;;;;;;;;5013627;28;20022;-59
2022/12/10 10:20:30;;;;;;;39.08;13.95;;;;;;;;;;5013252;28;20030;-58
2022/12/10 10:22:56;;;;;;;33.23;11.90;;;;;;;;;;5013113;28;20394;-58
2022/12/10 10:25:21;;;;;;;36.90;13.18;;;;;;;;;;5013435;28;20358;-58
2022/12/10 10:27:46;;;;;;;39.80;13.93;;;;;;;;;;5013091;28;20056;-59
2022/12/10 10:30:19;;;;;;;35.90;11.77;;;;;;;;;;5012830;28;20382;-58
2022/12/10 10:32:48;;;;;;;36.08;11.77;;;;;;;;;;5013160;28;20365;-58
2022/12/10 10:35:21;;;;;;;35.28;12.85;;;;;;;;;;5013194;28;20022;-58
2022/12/10 10:37:46;;;;;;;35.15;12.77;;;;;;;;;;5013129;28;20133;-58
2022/12/10 10:40:28;;;;;;;38.97;12.30;;;;;;;;;;5012883;28;20096;-59
2022/12/10 10:42:58;;;;;;;36.53;12.82;;;;;;;;;;5012669;28;20024;-58
2022/12/10 10:45:34;;;;;;;35.50;12.73;;;;;;;;;;5012879;28;20018;-59
2022/12/10 10:48:03;;;;;;;37.00;13.35;;;;;;;;;;5013153;28;20085;-58
2022/12/10 10:50:29;;;;;;;37.17;12.80;;;;;;;;;;5012684;28;20121;-58
2022/12/10 10:52:54;;;;;;;36.33;14.00;;;;;;;;;;5012125;28;20485;-58
2022/12/10 10:55:35;;;;;;;39.80;13.80;;;;;;;;;;5013035;28;20026;-58
2022/12/10 10:58:00;;;;;;;38.63;14.25;;;;;;;;;;5013081;28;20108;-56
2022/12/10 11:00:25;;;;;;;34.57;12.80;;;;;;;;;;5012950;28;20101;-58
2022/12/10 11:02:51;;;;;;;35.93;13.77;;;;;;;;;;5012298;28;20464;-58
2022/12/10 11:05:26;;;;;;;36.95;13.88;;;;;;;;;;5012338;28;20469;-57
2022/12/10 11:08:01;;;;;;;36.05;12.90;;;;;;;;;;5012600;28;20436;-59
2022/12/10 11:10:27;;;;;;;34.63;13.52;;;;;;;;;;5012633;28;20025;-57
2022/12/10 11:13:04;;;;;;;36.42;13.10;;;;;;;;;;5010907;28;20497;-57
2022/12/10 11:15:39;;;;;;;33.85;13.07;;;;;;;;;;5012360;28;20041;-57
2022/12/10 11:18:25;;;;;;;31.70;12.55;;;;;;;;;;5006311;28;20026;-57
2022/12/10 11:21:16;;;;;;;33.88;13.65;;;;;;;;;;4992762;28;20133;-57
2022/12/10 11:23:48;;;;;;;36.70;12.98;;;;;;;;;;4987843;28;20038;-57
2022/12/10 11:26:33;;;;;;;30.88;11.93;;;;;;;;;;4992448;28;20385;-57
2022/12/10 11:29:17;;;;;;;34.63;13.90;;;;;;;;;;4992687;28;20076;-58
2022/12/10 11:31:56;;;;;;;32.67;12.45;;;;;;;;;;4992433;28;20029;-58
2022/12/10 11:34:21;;;;;;;;;;;;;;;;;;4992882;28;20026;-58
2022/12/10 11:37:06;;;;;;;30.00;11.27;;;;;;;;;;4992569;28;19920;-58
2022/12/10 11:39:41;;;;;;;32.88;12.90;;;;;;;;;;4992596;28;20460;-58
2022/12/10 11:42:33;;;;;;;30.15;11.32;;;;;;;;;;4991679;28;20362;-58
2022/12/10 11:45:17;;;;;;;29.63;12.45;;;;;;;;;;4987023;28;20423;-58
2022/12/10 11:47:47;;;;;;;33.97;13.98;;;;;;;;;;4992310;28;20061;-58
2022/12/10 11:50:20;;;;;;;29.60;11.90;;;;;;;;;;4992365;28;20081;-58
2022/12/10 11:52:48;;;;;;;31.17;13.07;;;;;;;;;;4992045;28;20076;-58
2022/12/10 11:55:26;;;;;;;30.50;13.27;;;;;;;;;;4991873;28;20055;-58
2022/12/10 11:58:09;;;;;;;31.33;13.18;;;;;;;;;;4992197;28;20045;-58
2022/12/10 12:00:41;;;;;;;32.70;12.40;;;;;;;;;;4992051;28;20076;-59
2022/12/10 12:03:09;;;;;;;35.83;13.95;;;;;;;;;;4991951;28;20018;-58
2022/12/10 12:05:53;;;;;;;29.40;12.40;;;;;;;;;;4991704;28;20040;-57
2022/12/10 12:08:33;;;;;;;29.17;11.75;;;;;;;;;;4992294;28;20087;-58
2022/12/10 12:11:01;;;;;;;29.83;13.00;;;;;;;;;;4991894;28;20550;-57
2022/12/10 12:13:30;;;;;;;29.95;12.23;;;;;;;;;;4991635;28;20043;-57
2022/12/10 12:16:04;;;;;;;32.97;12.85;;;;;;;;;;4991395;28;20177;-57
2022/12/10 12:18:51;;;;;;;30.58;12.32;;;;;;;;;;5005995;28;20017;-57
2022/12/10 12:21:17;;;;;;;31.75;12.07;;;;;;;;;;5011419;28;20097;-57
2022/12/10 12:23:47;;;;;;;29.92;12.98;;;;;;;;;;5010984;28;20528;-56
2022/12/10 12:26:14;;;;;;;26.17;10.85;;;;;;;;;;5011326;28;20036;-57
2022/12/10 12:28:49;;;;;;;29.55;11.75;;;;;;;;;;5010969;28;20025;-56
2022/12/10 12:31:17;;;;;;;25.92;10.70;;;;;;;;;;5011182;28;20022;-57
2022/12/10 12:33:46;;;;;;;28.60;12.32;;;;;;;;;;5011166;28;20028;-58
2022/12/10 12:36:20;;;;;;;25.67;11.07;;;;;;;;;;5009694;28;20022;-58
2022/12/10 12:38:53;;;;;;;29.92;12.18;;;;;;;;;;5010809;28;20021;-57
2022/12/10 12:41:21;;;;;;;27.73;11.70;;;;;;;;;;5011092;28;20026;-57
2022/12/10 12:43:58;;;;;;;28.00;11.45;;;;;;;;;;5010861;28;20030;-57
2022/12/10 12:46:32;;;;;;;24.27;10.82;;;;;;;;;;5010960;28;20155;-57
2022/12/10 12:49:00;;;;;;;28.83;11.10;;;;;;;;;;5010809;28;20028;-57
2022/12/10 12:51:38;;;;;;;26.17;11.38;;;;;;;;;;5010689;28;20033;-56
2022/12/10 12:54:04;;;;;;;31.10;12.40;;;;;;;;;;5010739;28;20026;-57
2022/12/10 12:56:35;;;;;;;25.67;10.77;;;;;;;;;;5011138;28;20519;-58
2022/12/10 12:59:00;;;;;;;29.45;10.75;;;;;;;;;;5010969;28;20484;-58
2022/12/10 13:01:41;;;;;;;23.60;9.70;;;;;;;;;;5010891;28;20449;-56
2022/12/10 13:04:07;;;;;;;24.10;10.20;;;;;;;;;;5010357;28;20050;-58
2022/12/10 13:06:37;;;;;;;28.00;11.73;;;;;;;;;;5010946;28;20107;-58
2022/12/10 13:09:11;;;;;;;23.45;9.60;;;;;;;;;;5010873;28;20018;-56
2022/12/10 13:11:37;;;;;;;22.38;9.40;;;;;;;;;;5010932;28;20029;-57
2022/12/10 13:14:10;;;;;;;23.88;9.52;;;;;;;;;;5010309;28;20053;-57
2022/12/10 13:16:43;;;;;;;23.60;9.75;;;;;;;;;;5010360;28;20022;-58
2022/12/10 13:19:17;;;;;;;24.52;10.90;;;;;;;;;;5010867;28;20140;-58
2022/12/10 13:22:04;;;;;;;27.73;10.75;;;;;;;;;;5010654;28;20465;-57
2022/12/10 13:24:35;;;;;;;21.38;9.25;;;;;;;;;;5010480;28;20044;-58
2022/12/10 13:27:09;;;;;;;28.75;11.02;;;;;;;;;;5010476;28;20021;-57
2022/12/10 13:29:46;;;;;;;24.67;10.00;;;;;;;;;;5010605;28;20026;-58
2022/12/10 13:32:19;;;;;;;24.50;10.15;;;;;;;;;;5010377;28;20408;-58
2022/12/10 13:34:45;;;;;;;22.77;10.45;;;;;;;;;;5010441;28;20029;-57
2022/12/10 13:37:13;;;;;;;27.75;11.07;;;;;;;;;;5010444;28;20014;-57
2022/12/10 13:39:52;;;;;;;24.77;10.50;;;;;;;;;;5010386;28;20471;-57
2022/12/10 13:45:21;;;;;;;24.98;11.15;;;;;;;;;;4991162;28;20056;-57
2022/12/10 13:47:48;;;;;;;27.08;10.90;;;;;;;;;;4990299;28;20034;-57
2022/12/10 13:50:13;;;;;;;;;;;;;;;;;;5009636;28;20054;-57
2022/12/10 13:52:49;;;;;;;23.00;10.50;;;;;;;;;;5010475;28;19940;-62
2022/12/10 13:55:20;;;;;;;22.67;9.93;;;;;;;;;;5010411;28;20021;-57
2022/12/10 13:58:04;;;;;;;24.77;11.13;;;;;;;;;;5010140;28;20030;-57
2022/12/10 14:00:37;;;;;;;24.05;10.27;;;;;;;;;;5010358;28;20042;-58
2022/12/10 14:03:09;;;;;;;28.02;11.73;;;;;;;;;;5010321;28;20025;-58
2022/12/10 14:05:49;;;;;;;24.95;10.73;;;;;;;;;;5011471;28;20092;-57
2022/12/10 14:08:18;;;;;;;26.25;11.10;;;;;;;;;;5013814;28;20113;-57
2022/12/10 14:10:44;;;;;;;22.40;9.65;;;;;;;;;;5013626;28;20024;-57
2022/12/10 14:13:11;;;;;;;24.77;10.68;;;;;;;;;;5013417;28;20057;-58
2022/12/10 14:15:37;;;;;;;23.05;10.30;;;;;;;;;;5013552;28;20149;-58
2022/12/10 14:18:13;;;;;;;26.02;11.30;;;;;;;;;;5013494;28;20029;-58
2022/12/10 14:20:40;;;;;;;25.55;10.00;;;;;;;;;;5013718;28;20018;-58
2022/12/10 14:23:38;;;;;;;26.05;10.27;;;;;;;;;;5013279;28;20407;-58
2022/12/10 14:26:23;;;;;;;22.83;9.50;;;;;;;;;;5013555;28;20018;-58
2022/12/10 14:28:49;;;;;;;22.55;10.00;;;;;;;;;;4999158;28;20026;-58
2022/12/10 14:31:19;;;;;;;27.38;10.73;;;;;;;;;;5013329;28;20109;-58
2022/12/10 14:33:46;;;;;;;22.25;8.70;;;;;;;;;;5013310;28;20093;-57
2022/12/10 14:36:15;;;;;;;23.38;8.98;;;;;;;;;;5013195;28;20453;-58
2022/12/10 14:38:40;;;;;;;24.15;10.50;;;;;;;;;;5013328;28;20037;-58
2022/12/10 14:41:06;;;;;;;24.97;10.33;;;;;;;;;;5012993;28;20026;-57
2022/12/10 14:43:39;;;;;;;23.98;10.23;;;;;;;;;;5013278;28;20026;-59
2022/12/10 14:46:05;;;;;;;24.15;10.25;;;;;;;;;;5012840;28;20032;-58